sensor_id;sensor_type;location;lat;lon;timestamp;temperature;humidity
29413;DHT22;16389;50.126;8.450;2024-03-25T00:00:42;7.00;99.90
29413;DHT22;16389;50.126;8.450;2024-03-25T00:03:08;7.00;99.90
29413;DHT22;16389;50.126;8.450;2024-03-25T00:05:34;7.00;99.90
29413;DHT22;16389;50.126;8.450;2024-03-25T00:07:59;7.00;99.90
29413;DHT22;16389;50.126;8.450;2024-03-25T00:10:25;7.00;99.90
29413;DHT22;16389;50.126;8.450;2024-03-25T00:12:51;7.00;99.90
29413;DHT22;16389;50.126;8.450;2024-03-25T00:15:21;7.00;99.90
29413;DHT22;16389;50.126;8.450;2024-03-25T00:17:47;7.00;99.90
29413;DHT22;16389;50.126;8.450;2024-03-25T00:20:13;7.00;99.90
29413;DHT22;16389;50.126;8.450;2024-03-25T00:22:40;7.00;99.90
29413;DHT22;16389;50.126;8.450;2024-03-25T00:25:06;7.00;99.90
29413;DHT22;16389;50.126;8.450;2024-03-25T00:27:32;6.90;99.90
29413;DHT22;16389;50.126;8.450;2024-03-25T00:29:58;6.90;99.90
29413;DHT22;16389;50.126;8.450;2024-03-25T00:32:24;6.90;99.90
29413;DHT22;16389;50.126;8.450;2024-03-25T00:34:50;6.90;99.90
29413;DHT22;16389;50.126;8.450;2024-03-25T00:37:16;6.90;99.90
29413;DHT22;16389;50.126;8.450;2024-03-25T00:39:41;6.90;99.90
29413;DHT22;16389;50.126;8.450;2024-03-25T00:42:07;6.90;99.90
29413;DHT22;16389;50.126;8.450;2024-03-25T00:44:33;6.80;99.90
29413;DHT22;16389;50.126;8.450;2024-03-25T00:46:58;6.80;99.90
29413;DHT22;16389;50.126;8.450;2024-03-25T00:49:24;6.80;99.90
29413;DHT22;16389;50.126;8.450;2024-03-25T00:51:50;6.80;99.90
29413;DHT22;16389;50.126;8.450;2024-03-25T00:54:16;6.80;99.90
29413;DHT22;16389;50.126;8.450;2024-03-25T00:56:41;6.70;99.90
29413;DHT22;16389;50.126;8.450;2024-03-25T00:59:07;6.70;99.90
29413;DHT22;16389;50.126;8.450;2024-03-25T01:01:33;6.70;99.90
29413;DHT22;16389;50.126;8.450;2024-03-25T01:04:01;6.70;99.90
29413;DHT22;16389;50.126;8.450;2024-03-25T01:06:27;6.60;99.90
29413;DHT22;16389;50.126;8.450;2024-03-25T01:08:52;6.60;99.90
29413;DHT22;16389;50.126;8.450;2024-03-25T01:11:18;6.60;99.90
29413;DHT22;16389;50.126;8.450;2024-03-25T01:13:43;6.60;99.90
29413;DHT22;16389;50.126;8.450;2024-03-25T01:16:09;6.50;99.90
29413;DHT22;16389;50.126;8.450;2024-03-25T01:18:35;6.50;99.90
29413;DHT22;16389;50.126;8.450;2024-03-25T01:21:01;6.50;99.90
29413;DHT22;16389;50.126;8.450;2024-03-25T01:23:26;6.50;99.90
29413;DHT22;16389;50.126;8.450;2024-03-25T01:25:52;6.50;99.90
29413;DHT22;16389;50.126;8.450;2024-03-25T01:28:18;6.50;99.90
29413;DHT22;16389;50.126;8.450;2024-03-25T01:30:43;6.50;99.90
29413;DHT22;16389;50.126;8.450;2024-03-25T01:33:09;6.60;99.90
29413;DHT22;16389;50.126;8.450;2024-03-25T01:35:35;6.60;99.90
29413;DHT22;16389;50.126;8.450;2024-03-25T01:38:01;6.60;99.90
29413;DHT22;16389;50.126;8.450;2024-03-25T01:40:26;6.60;99.90
29413;DHT22;16389;50.126;8.450;2024-03-25T01:42:59;6.60;99.90
29413;DHT22;16389;50.126;8.450;2024-03-25T01:45:25;6.60;99.90
29413;DHT22;16389;50.126;8.450;2024-03-25T01:47:53;6.60;99.90
29413;DHT22;16389;50.126;8.450;2024-03-25T01:50:20;6.50;99.90
29413;DHT22;16389;50.126;8.450;2024-03-25T01:52:47;6.50;99.90
29413;DHT22;16389;50.126;8.450;2024-03-25T01:55:16;6.40;99.90
29413;DHT22;16389;50.126;8.450;2024-03-25T01:57:44;6.40;99.90
29413;DHT22;16389;50.126;8.450;2024-03-25T02:00:10;6.40;99.90
29413;DHT22;16389;50.126;8.450;2024-03-25T02:02:40;6.40;99.90
29413;DHT22;16389;50.126;8.450;2024-03-25T02:05:14;6.30;99.90
29413;DHT22;16389;50.126;8.450;2024-03-25T02:07:40;6.20;99.90
29413;DHT22;16389;50.126;8.450;2024-03-25T02:10:07;6.10;99.90
29413;DHT22;16389;50.126;8.450;2024-03-25T02:12:40;6.10;99.90
29413;DHT22;16389;50.126;8.450;2024-03-25T02:15:07;6.10;99.90
29413;DHT22;16389;50.126;8.450;2024-03-25T02:17:34;6.10;99.90
29413;DHT22;16389;50.126;8.450;2024-03-25T02:19:59;6.00;99.90
29413;DHT22;16389;50.126;8.450;2024-03-25T02:22:25;6.00;99.90
29413;DHT22;16389;50.126;8.450;2024-03-25T02:24:53;6.00;99.90
29413;DHT22;16389;50.126;8.450;2024-03-25T02:27:21;6.10;99.90
29413;DHT22;16389;50.126;8.450;2024-03-25T02:29:47;6.00;99.90
29413;DHT22;16389;50.126;8.450;2024-03-25T02:32:12;6.00;99.90
29413;DHT22;16389;50.126;8.450;2024-03-25T02:34:51;6.00;99.90
29413;DHT22;16389;50.126;8.450;2024-03-25T02:37:18;5.90;99.90
29413;DHT22;16389;50.126;8.450;2024-03-25T02:39:44;5.90;99.90
29413;DHT22;16389;50.126;8.450;2024-03-25T02:42:10;5.90;99.90
29413;DHT22;16389;50.126;8.450;2024-03-25T02:44:35;5.80;99.90
29413;DHT22;16389;50.126;8.450;2024-03-25T02:47:01;5.80;99.90
29413;DHT22;16389;50.126;8.450;2024-03-25T02:49:28;5.80;99.90
29413;DHT22;16389;50.126;8.450;2024-03-25T02:51:53;5.70;99.90
29413;DHT22;16389;50.126;8.450;2024-03-25T02:54:19;5.60;99.90
29413;DHT22;16389;50.126;8.450;2024-03-25T02:56:45;5.60;99.90
29413;DHT22;16389;50.126;8.450;2024-03-25T02:59:10;5.60;99.90
29413;DHT22;16389;50.126;8.450;2024-03-25T03:01:36;5.50;99.90
29413;DHT22;16389;50.126;8.450;2024-03-25T03:04:01;5.50;99.90
29413;DHT22;16389;50.126;8.450;2024-03-25T03:06:27;5.60;99.90
29413;DHT22;16389;50.126;8.450;2024-03-25T03:08:52;5.50;99.90
29413;DHT22;16389;50.126;8.450;2024-03-25T03:11:18;5.60;99.90
29413;DHT22;16389;50.126;8.450;2024-03-25T03:13:44;5.70;99.90
29413;DHT22;16389;50.126;8.450;2024-03-25T03:16:09;5.80;99.90
29413;DHT22;16389;50.126;8.450;2024-03-25T03:18:35;5.80;99.90
29413;DHT22;16389;50.126;8.450;2024-03-25T03:21:01;5.80;99.90
29413;DHT22;16389;50.126;8.450;2024-03-25T03:23:26;5.80;99.90
29413;DHT22;16389;50.126;8.450;2024-03-25T03:25:52;5.80;99.90
29413;DHT22;16389;50.126;8.450;2024-03-25T03:28:18;5.80;99.90
29413;DHT22;16389;50.126;8.450;2024-03-25T03:30:44;5.80;99.90
29413;DHT22;16389;50.126;8.450;2024-03-25T03:33:09;5.80;99.90
29413;DHT22;16389;50.126;8.450;2024-03-25T03:35:35;5.80;99.90
29413;DHT22;16389;50.126;8.450;2024-03-25T03:38:01;5.80;99.90
29413;DHT22;16389;50.126;8.450;2024-03-25T03:40:27;5.80;99.90
29413;DHT22;16389;50.126;8.450;2024-03-25T03:42:53;5.80;99.90
29413;DHT22;16389;50.126;8.450;2024-03-25T03:45:19;5.80;99.90
29413;DHT22;16389;50.126;8.450;2024-03-25T03:47:44;5.70;99.90
29413;DHT22;16389;50.126;8.450;2024-03-25T03:50:10;5.70;99.90
29413;DHT22;16389;50.126;8.450;2024-03-25T03:52:36;5.60;99.90
29413;DHT22;16389;50.126;8.450;2024-03-25T03:55:01;5.60;99.90
29413;DHT22;16389;50.126;8.450;2024-03-25T03:57:27;5.50;99.90
29413;DHT22;16389;50.126;8.450;2024-03-25T03:59:52;5.50;99.90
29413;DHT22;16389;50.126;8.450;2024-03-25T04:02:18;5.30;99.90
29413;DHT22;16389;50.126;8.450;2024-03-25T04:04:44;5.20;99.90
29413;DHT22;16389;50.126;8.450;2024-03-25T04:07:10;5.00;99.90
29413;DHT22;16389;50.126;8.450;2024-03-25T04:09:35;4.90;99.90
29413;DHT22;16389;50.126;8.450;2024-03-25T04:12:01;4.80;99.90
29413;DHT22;16389;50.126;8.450;2024-03-25T04:14:27;4.70;99.90
29413;DHT22;16389;50.126;8.450;2024-03-25T04:16:52;4.60;99.90
29413;DHT22;16389;50.126;8.450;2024-03-25T04:19:19;4.60;99.90
29413;DHT22;16389;50.126;8.450;2024-03-25T04:21:45;4.60;99.90
29413;DHT22;16389;50.126;8.450;2024-03-25T04:24:11;4.60;99.90
29413;DHT22;16389;50.126;8.450;2024-03-25T04:26:37;4.50;99.90
29413;DHT22;16389;50.126;8.450;2024-03-25T04:29:04;4.60;99.90
29413;DHT22;16389;50.126;8.450;2024-03-25T04:31:29;4.60;99.90
29413;DHT22;16389;50.126;8.450;2024-03-25T04:33:55;4.70;99.90
29413;DHT22;16389;50.126;8.450;2024-03-25T04:36:20;4.70;99.90
29413;DHT22;16389;50.126;8.450;2024-03-25T04:38:46;4.80;99.90
29413;DHT22;16389;50.126;8.450;2024-03-25T04:41:11;4.70;99.90
29413;DHT22;16389;50.126;8.450;2024-03-25T04:43:37;4.60;99.90
29413;DHT22;16389;50.126;8.450;2024-03-25T04:46:03;4.40;99.90
29413;DHT22;16389;50.126;8.450;2024-03-25T04:48:28;4.30;99.90
29413;DHT22;16389;50.126;8.450;2024-03-25T04:50:55;4.10;99.90
29413;DHT22;16389;50.126;8.450;2024-03-25T04:53:20;4.00;99.90
29413;DHT22;16389;50.126;8.450;2024-03-25T04:55:46;3.90;99.90
29413;DHT22;16389;50.126;8.450;2024-03-25T04:58:11;3.70;99.90
29413;DHT22;16389;50.126;8.450;2024-03-25T05:00:37;3.70;99.90
29413;DHT22;16389;50.126;8.450;2024-03-25T05:03:03;3.60;99.90
29413;DHT22;16389;50.126;8.450;2024-03-25T05:05:29;3.50;99.90
29413;DHT22;16389;50.126;8.450;2024-03-25T05:07:55;3.50;99.90
29413;DHT22;16389;50.126;8.450;2024-03-25T05:10:21;3.50;99.90
29413;DHT22;16389;50.126;8.450;2024-03-25T05:12:46;3.50;99.90
29413;DHT22;16389;50.126;8.450;2024-03-25T05:15:15;3.50;99.90
29413;DHT22;16389;50.126;8.450;2024-03-25T05:17:41;3.50;99.90
29413;DHT22;16389;50.126;8.450;2024-03-25T05:20:06;3.50;99.90
29413;DHT22;16389;50.126;8.450;2024-03-25T05:22:32;3.50;99.90
29413;DHT22;16389;50.126;8.450;2024-03-25T05:24:58;3.40;99.90
29413;DHT22;16389;50.126;8.450;2024-03-25T05:27:23;3.40;99.90
29413;DHT22;16389;50.126;8.450;2024-03-25T05:29:49;3.30;99.90
29413;DHT22;16389;50.126;8.450;2024-03-25T05:32:15;3.40;99.90
29413;DHT22;16389;50.126;8.450;2024-03-25T05:34:42;3.40;99.90
29413;DHT22;16389;50.126;8.450;2024-03-25T05:37:07;3.40;99.90
29413;DHT22;16389;50.126;8.450;2024-03-25T05:39:33;3.30;99.90
29413;DHT22;16389;50.126;8.450;2024-03-25T05:41:58;3.20;99.90
29413;DHT22;16389;50.126;8.450;2024-03-25T05:44:24;3.10;99.90
29413;DHT22;16389;50.126;8.450;2024-03-25T05:46:49;3.10;99.90
29413;DHT22;16389;50.126;8.450;2024-03-25T05:49:15;3.00;99.90
29413;DHT22;16389;50.126;8.450;2024-03-25T05:51:40;3.10;99.90
29413;DHT22;16389;50.126;8.450;2024-03-25T05:54:06;3.10;99.90
29413;DHT22;16389;50.126;8.450;2024-03-25T05:56:32;3.10;99.90
29413;DHT22;16389;50.126;8.450;2024-03-25T05:58:58;3.20;99.90
29413;DHT22;16389;50.126;8.450;2024-03-25T06:01:23;3.30;99.90
29413;DHT22;16389;50.126;8.450;2024-03-25T06:03:49;3.40;99.90
29413;DHT22;16389;50.126;8.450;2024-03-25T06:06:15;3.60;99.90
29413;DHT22;16389;50.126;8.450;2024-03-25T06:08:40;3.70;99.90
29413;DHT22;16389;50.126;8.450;2024-03-25T06:11:06;3.70;99.90
29413;DHT22;16389;50.126;8.450;2024-03-25T06:13:31;3.90;99.90
29413;DHT22;16389;50.126;8.450;2024-03-25T06:15:58;3.90;99.90
29413;DHT22;16389;50.126;8.450;2024-03-25T06:18:24;4.00;99.90
29413;DHT22;16389;50.126;8.450;2024-03-25T06:20:49;4.00;99.90
29413;DHT22;16389;50.126;8.450;2024-03-25T06:23:25;4.10;99.90
29413;DHT22;16389;50.126;8.450;2024-03-25T06:25:51;4.20;99.90
29413;DHT22;16389;50.126;8.450;2024-03-25T06:28:18;4.30;99.90
29413;DHT22;16389;50.126;8.450;2024-03-25T06:30:49;4.30;99.90
29413;DHT22;16389;50.126;8.450;2024-03-25T06:33:34;4.40;99.90
29413;DHT22;16389;50.126;8.450;2024-03-25T06:36:18;4.50;99.90
29413;DHT22;16389;50.126;8.450;2024-03-25T06:38:44;4.60;99.90
29413;DHT22;16389;50.126;8.450;2024-03-25T06:41:10;4.80;99.90
29413;DHT22;16389;50.126;8.450;2024-03-25T06:43:36;4.90;99.90
29413;DHT22;16389;50.126;8.450;2024-03-25T06:46:03;5.10;99.90
29413;DHT22;16389;50.126;8.450;2024-03-25T06:48:29;5.10;99.90
29413;DHT22;16389;50.126;8.450;2024-03-25T06:50:56;5.30;99.90
29413;DHT22;16389;50.126;8.450;2024-03-25T06:53:22;5.40;99.90
29413;DHT22;16389;50.126;8.450;2024-03-25T06:56:06;5.60;99.90
29413;DHT22;16389;50.126;8.450;2024-03-25T06:58:32;5.80;99.90
29413;DHT22;16389;50.126;8.450;2024-03-25T07:01:07;5.90;99.90
29413;DHT22;16389;50.126;8.450;2024-03-25T07:03:33;6.10;99.90
29413;DHT22;16389;50.126;8.450;2024-03-25T07:05:59;6.30;99.90
29413;DHT22;16389;50.126;8.450;2024-03-25T07:08:26;6.20;99.90
29413;DHT22;16389;50.126;8.450;2024-03-25T07:10:52;6.30;99.90
29413;DHT22;16389;50.126;8.450;2024-03-25T07:13:18;6.50;99.90
29413;DHT22;16389;50.126;8.450;2024-03-25T07:15:44;6.70;99.90
29413;DHT22;16389;50.126;8.450;2024-03-25T07:18:10;6.80;99.90
29413;DHT22;16389;50.126;8.450;2024-03-25T07:20:38;6.90;99.90
29413;DHT22;16389;50.126;8.450;2024-03-25T07:23:04;6.90;99.90
29413;DHT22;16389;50.126;8.450;2024-03-25T07:25:30;7.10;99.90
29413;DHT22;16389;50.126;8.450;2024-03-25T07:27:55;7.00;99.90
29413;DHT22;16389;50.126;8.450;2024-03-25T07:30:21;7.00;99.90
29413;DHT22;16389;50.126;8.450;2024-03-25T07:32:56;6.90;99.90
29413;DHT22;16389;50.126;8.450;2024-03-25T07:35:22;6.90;99.90
29413;DHT22;16389;50.126;8.450;2024-03-25T07:37:48;7.20;99.90
29413;DHT22;16389;50.126;8.450;2024-03-25T07:40:20;7.40;99.90
29413;DHT22;16389;50.126;8.450;2024-03-25T07:42:45;7.50;99.90
29413;DHT22;16389;50.126;8.450;2024-03-25T07:45:11;7.70;99.90
29413;DHT22;16389;50.126;8.450;2024-03-25T07:47:37;7.70;99.90
29413;DHT22;16389;50.126;8.450;2024-03-25T07:50:03;7.60;99.90
29413;DHT22;16389;50.126;8.450;2024-03-25T07:52:29;7.60;99.90
29413;DHT22;16389;50.126;8.450;2024-03-25T07:54:55;7.60;99.90
29413;DHT22;16389;50.126;8.450;2024-03-25T07:57:21;7.40;99.90
29413;DHT22;16389;50.126;8.450;2024-03-25T07:59:46;7.70;99.90
29413;DHT22;16389;50.126;8.450;2024-03-25T08:02:12;7.80;99.90
29413;DHT22;16389;50.126;8.450;2024-03-25T08:04:38;8.30;99.90
29413;DHT22;16389;50.126;8.450;2024-03-25T08:07:03;8.30;99.90
29413;DHT22;16389;50.126;8.450;2024-03-25T08:09:29;8.40;99.90
29413;DHT22;16389;50.126;8.450;2024-03-25T08:11:55;8.50;99.90
29413;DHT22;16389;50.126;8.450;2024-03-25T08:14:20;8.60;99.90
29413;DHT22;16389;50.126;8.450;2024-03-25T08:16:46;8.80;99.90
29413;DHT22;16389;50.126;8.450;2024-03-25T08:19:12;8.90;99.90
29413;DHT22;16389;50.126;8.450;2024-03-25T08:21:37;8.70;99.90
29413;DHT22;16389;50.126;8.450;2024-03-25T08:24:03;8.70;99.90
29413;DHT22;16389;50.126;8.450;2024-03-25T08:26:29;8.50;99.90
29413;DHT22;16389;50.126;8.450;2024-03-25T08:28:55;8.40;99.90
29413;DHT22;16389;50.126;8.450;2024-03-25T08:31:20;8.20;99.90
29413;DHT22;16389;50.126;8.450;2024-03-25T08:33:46;8.10;99.90
29413;DHT22;16389;50.126;8.450;2024-03-25T08:36:11;8.10;99.90
29413;DHT22;16389;50.126;8.450;2024-03-25T08:38:37;8.10;99.90
29413;DHT22;16389;50.126;8.450;2024-03-25T08:41:03;8.40;99.90
29413;DHT22;16389;50.126;8.450;2024-03-25T08:43:29;9.10;99.90
29413;DHT22;16389;50.126;8.450;2024-03-25T08:45:55;9.20;99.90
29413;DHT22;16389;50.126;8.450;2024-03-25T08:48:20;9.50;99.90
29413;DHT22;16389;50.126;8.450;2024-03-25T08:50:46;9.60;99.90
29413;DHT22;16389;50.126;8.450;2024-03-25T08:53:11;9.40;99.90
29413;DHT22;16389;50.126;8.450;2024-03-25T08:55:37;9.50;99.90
29413;DHT22;16389;50.126;8.450;2024-03-25T08:58:02;9.60;99.90
29413;DHT22;16389;50.126;8.450;2024-03-25T09:00:28;9.90;99.90
29413;DHT22;16389;50.126;8.450;2024-03-25T09:02:54;10.60;99.90
29413;DHT22;16389;50.126;8.450;2024-03-25T09:05:21;11.40;99.90
29413;DHT22;16389;50.126;8.450;2024-03-25T09:07:50;11.70;99.90
29413;DHT22;16389;50.126;8.450;2024-03-25T09:10:17;11.40;99.90
29413;DHT22;16389;50.126;8.450;2024-03-25T09:13:01;10.70;99.90
29413;DHT22;16389;50.126;8.450;2024-03-25T09:15:28;10.70;99.90
29413;DHT22;16389;50.126;8.450;2024-03-25T09:17:54;10.70;99.90
29413;DHT22;16389;50.126;8.450;2024-03-25T09:20:20;10.90;99.90
29413;DHT22;16389;50.126;8.450;2024-03-25T09:22:46;11.00;99.90
29413;DHT22;16389;50.126;8.450;2024-03-25T09:25:14;11.30;99.90
29413;DHT22;16389;50.126;8.450;2024-03-25T09:27:40;12.20;99.90
29413;DHT22;16389;50.126;8.450;2024-03-25T09:30:06;12.30;97.60
29413;DHT22;16389;50.126;8.450;2024-03-25T09:32:33;11.90;96.90
29413;DHT22;16389;50.126;8.450;2024-03-25T09:34:58;11.60;96.00
29413;DHT22;16389;50.126;8.450;2024-03-25T09:37:24;11.50;98.60
29413;DHT22;16389;50.126;8.450;2024-03-25T09:39:50;12.30;99.20
29413;DHT22;16389;50.126;8.450;2024-03-25T09:42:21;13.00;98.40
29413;DHT22;16389;50.126;8.450;2024-03-25T09:44:48;13.60;93.20
29413;DHT22;16389;50.126;8.450;2024-03-25T09:47:14;13.90;92.70
29413;DHT22;16389;50.126;8.450;2024-03-25T09:49:40;13.50;91.60
29413;DHT22;16389;50.126;8.450;2024-03-25T09:52:07;13.00;92.80
29413;DHT22;16389;50.126;8.450;2024-03-25T09:54:33;13.20;93.40
29413;DHT22;16389;50.126;8.450;2024-03-25T09:57:00;13.60;92.90
29413;DHT22;16389;50.126;8.450;2024-03-25T09:59:27;14.20;93.10
29413;DHT22;16389;50.126;8.450;2024-03-25T10:01:54;14.50;91.60
29413;DHT22;16389;50.126;8.450;2024-03-25T10:04:20;14.60;90.60
29413;DHT22;16389;50.126;8.450;2024-03-25T10:06:45;14.60;90.50
29413;DHT22;16389;50.126;8.450;2024-03-25T10:09:11;14.50;90.40
29413;DHT22;16389;50.126;8.450;2024-03-25T10:11:37;14.50;90.80
29413;DHT22;16389;50.126;8.450;2024-03-25T10:14:02;14.60;89.00
29413;DHT22;16389;50.126;8.450;2024-03-25T10:16:28;14.80;89.00
29413;DHT22;16389;50.126;8.450;2024-03-25T10:18:54;14.80;85.80
29413;DHT22;16389;50.126;8.450;2024-03-25T10:21:21;14.50;85.10
29413;DHT22;16389;50.126;8.450;2024-03-25T10:23:48;14.00;83.40
29413;DHT22;16389;50.126;8.450;2024-03-25T10:26:33;13.70;85.80
29413;DHT22;16389;50.126;8.450;2024-03-25T10:29:04;13.80;85.20
29413;DHT22;16389;50.126;8.450;2024-03-25T10:31:31;14.50;84.60
29413;DHT22;16389;50.126;8.450;2024-03-25T10:33:57;15.80;82.20
29413;DHT22;16389;50.126;8.450;2024-03-25T10:36:24;17.50;81.00
29413;DHT22;16389;50.126;8.450;2024-03-25T10:38:57;19.10;76.90
29413;DHT22;16389;50.126;8.450;2024-03-25T10:41:28;19.80;69.10
29413;DHT22;16389;50.126;8.450;2024-03-25T10:43:55;20.20;67.30
29413;DHT22;16389;50.126;8.450;2024-03-25T10:46:22;20.80;62.10
29413;DHT22;16389;50.126;8.450;2024-03-25T10:49:03;21.60;61.50
29413;DHT22;16389;50.126;8.450;2024-03-25T10:51:33;22.00;58.60
29413;DHT22;16389;50.126;8.450;2024-03-25T10:54:02;22.50;58.70
29413;DHT22;16389;50.126;8.450;2024-03-25T10:56:28;23.10;54.60
29413;DHT22;16389;50.126;8.450;2024-03-25T10:58:55;22.40;54.90
29413;DHT22;16389;50.126;8.450;2024-03-25T11:01:22;21.30;55.20
29413;DHT22;16389;50.126;8.450;2024-03-25T11:03:48;20.10;57.50
29413;DHT22;16389;50.126;8.450;2024-03-25T11:06:15;19.10;59.80
29413;DHT22;16389;50.126;8.450;2024-03-25T11:08:42;18.10;59.40
29413;DHT22;16389;50.126;8.450;2024-03-25T11:11:12;17.20;62.50
29413;DHT22;16389;50.126;8.450;2024-03-25T11:13:38;16.40;64.30
29413;DHT22;16389;50.126;8.450;2024-03-25T11:16:06;15.80;64.70
29413;DHT22;16389;50.126;8.450;2024-03-25T11:18:31;15.20;66.00
29413;DHT22;16389;50.126;8.450;2024-03-25T11:21:02;14.90;68.80
29413;DHT22;16389;50.126;8.450;2024-03-25T11:23:37;14.90;71.00
29413;DHT22;16389;50.126;8.450;2024-03-25T11:26:03;14.60;67.00
29413;DHT22;16389;50.126;8.450;2024-03-25T11:28:29;14.00;70.10
29413;DHT22;16389;50.126;8.450;2024-03-25T11:30:55;15.10;70.30
29413;DHT22;16389;50.126;8.450;2024-03-25T11:35:49;16.90;64.50
29413;DHT22;16389;50.126;8.450;2024-03-25T11:38:14;21.30;58.50
29413;DHT22;16389;50.126;8.450;2024-03-25T11:40:43;23.80;53.70
29413;DHT22;16389;50.126;8.450;2024-03-25T11:43:09;25.60;48.80
29413;DHT22;16389;50.126;8.450;2024-03-25T11:45:36;25.20;47.70
29413;DHT22;16389;50.126;8.450;2024-03-25T11:48:02;25.90;47.00
29413;DHT22;16389;50.126;8.450;2024-03-25T11:50:28;25.20;49.40
29413;DHT22;16389;50.126;8.450;2024-03-25T11:52:53;25.60;48.70
29413;DHT22;16389;50.126;8.450;2024-03-25T11:55:19;26.20;48.50
29413;DHT22;16389;50.126;8.450;2024-03-25T11:57:45;27.90;46.30
29413;DHT22;16389;50.126;8.450;2024-03-25T12:00:11;29.50;43.00
29413;DHT22;16389;50.126;8.450;2024-03-25T12:02:43;30.20;41.10
29413;DHT22;16389;50.126;8.450;2024-03-25T12:05:09;30.90;40.30
29413;DHT22;16389;50.126;8.450;2024-03-25T12:07:35;30.00;39.70
29413;DHT22;16389;50.126;8.450;2024-03-25T12:10:02;29.10;40.00
29413;DHT22;16389;50.126;8.450;2024-03-25T12:12:47;29.40;41.30
29413;DHT22;16389;50.126;8.450;2024-03-25T12:15:12;30.30;39.50
29413;DHT22;16389;50.126;8.450;2024-03-25T12:17:38;30.00;38.60
29413;DHT22;16389;50.126;8.450;2024-03-25T12:20:06;29.40;39.70
29413;DHT22;16389;50.126;8.450;2024-03-25T12:22:33;30.10;38.80
29413;DHT22;16389;50.126;8.450;2024-03-25T12:25:01;30.80;39.30
29413;DHT22;16389;50.126;8.450;2024-03-25T12:27:30;32.10;38.50
29413;DHT22;16389;50.126;8.450;2024-03-25T12:29:59;32.80;37.30
29413;DHT22;16389;50.126;8.450;2024-03-25T12:35:01;31.70;37.10
29413;DHT22;16389;50.126;8.450;2024-03-25T12:37:29;31.70;37.80
29413;DHT22;16389;50.126;8.450;2024-03-25T12:39:54;32.30;36.90
29413;DHT22;16389;50.126;8.450;2024-03-25T12:42:24;33.60;36.50
29413;DHT22;16389;50.126;8.450;2024-03-25T12:44:51;34.10;35.40
29413;DHT22;16389;50.126;8.450;2024-03-25T12:47:16;32.70;34.50
29413;DHT22;16389;50.126;8.450;2024-03-25T12:49:42;32.50;36.20
29413;DHT22;16389;50.126;8.450;2024-03-25T12:52:08;32.80;35.50
29413;DHT22;16389;50.126;8.450;2024-03-25T12:54:34;34.50;34.50
29413;DHT22;16389;50.126;8.450;2024-03-25T12:56:59;34.40;32.70
29413;DHT22;16389;50.126;8.450;2024-03-25T12:59:25;33.50;34.30
29413;DHT22;16389;50.126;8.450;2024-03-25T13:01:51;34.60;34.20
29413;DHT22;16389;50.126;8.450;2024-03-25T13:04:17;33.60;32.80
29413;DHT22;16389;50.126;8.450;2024-03-25T13:06:43;32.20;34.30
29413;DHT22;16389;50.126;8.450;2024-03-25T13:09:08;32.50;33.90
29413;DHT22;16389;50.126;8.450;2024-03-25T13:11:34;33.60;34.40
29413;DHT22;16389;50.126;8.450;2024-03-25T13:14:00;34.80;32.90
29413;DHT22;16389;50.126;8.450;2024-03-25T13:16:26;35.70;31.60
29413;DHT22;16389;50.126;8.450;2024-03-25T13:18:51;36.20;31.50
29413;DHT22;16389;50.126;8.450;2024-03-25T13:21:17;35.20;31.20
29413;DHT22;16389;50.126;8.450;2024-03-25T13:23:43;35.30;31.20
29413;DHT22;16389;50.126;8.450;2024-03-25T13:26:08;36.10;30.60
29413;DHT22;16389;50.126;8.450;2024-03-25T13:28:34;36.90;30.50
29413;DHT22;16389;50.126;8.450;2024-03-25T13:31:00;37.60;30.50
29413;DHT22;16389;50.126;8.450;2024-03-25T13:33:25;38.00;29.90
29413;DHT22;16389;50.126;8.450;2024-03-25T13:35:51;38.10;29.20
29413;DHT22;16389;50.126;8.450;2024-03-25T13:38:17;38.50;29.50
29413;DHT22;16389;50.126;8.450;2024-03-25T13:40:42;39.30;29.00
29413;DHT22;16389;50.126;8.450;2024-03-25T13:43:08;39.80;28.50
29413;DHT22;16389;50.126;8.450;2024-03-25T13:45:34;39.70;28.50
29413;DHT22;16389;50.126;8.450;2024-03-25T13:48:00;39.10;28.20
29413;DHT22;16389;50.126;8.450;2024-03-25T13:50:26;39.10;28.20
29413;DHT22;16389;50.126;8.450;2024-03-25T13:52:52;39.80;27.60
29413;DHT22;16389;50.126;8.450;2024-03-25T13:55:17;40.00;27.30
29413;DHT22;16389;50.126;8.450;2024-03-25T13:57:44;40.40;27.40
29413;DHT22;16389;50.126;8.450;2024-03-25T14:00:10;40.60;27.20
29413;DHT22;16389;50.126;8.450;2024-03-25T14:02:36;40.80;26.40
29413;DHT22;16389;50.126;8.450;2024-03-25T14:05:04;40.80;26.90
29413;DHT22;16389;50.126;8.450;2024-03-25T14:07:30;40.90;26.40
29413;DHT22;16389;50.126;8.450;2024-03-25T14:09:56;41.00;26.40
29413;DHT22;16389;50.126;8.450;2024-03-25T14:12:21;40.80;26.20
29413;DHT22;16389;50.126;8.450;2024-03-25T14:14:49;40.30;25.30
29413;DHT22;16389;50.126;8.450;2024-03-25T14:17:14;40.60;25.90
29413;DHT22;16389;50.126;8.450;2024-03-25T14:19:40;40.50;25.30
29413;DHT22;16389;50.126;8.450;2024-03-25T14:22:07;40.40;25.20
29413;DHT22;16389;50.126;8.450;2024-03-25T14:24:32;40.80;25.20
29413;DHT22;16389;50.126;8.450;2024-03-25T14:26:58;41.10;25.10
29413;DHT22;16389;50.126;8.450;2024-03-25T14:29:24;41.70;23.70
29413;DHT22;16389;50.126;8.450;2024-03-25T14:31:49;41.80;24.20
29413;DHT22;16389;50.126;8.450;2024-03-25T14:34:15;41.10;24.10
29413;DHT22;16389;50.126;8.450;2024-03-25T14:36:40;40.20;24.30
29413;DHT22;16389;50.126;8.450;2024-03-25T14:39:06;39.60;25.20
29413;DHT22;16389;50.126;8.450;2024-03-25T14:41:40;39.50;24.90
29413;DHT22;16389;50.126;8.450;2024-03-25T14:44:06;38.80;25.00
29413;DHT22;16389;50.126;8.450;2024-03-25T14:46:31;39.10;25.80
29413;DHT22;16389;50.126;8.450;2024-03-25T14:48:57;40.20;25.60
29413;DHT22;16389;50.126;8.450;2024-03-25T14:51:22;40.90;24.90
29413;DHT22;16389;50.126;8.450;2024-03-25T14:53:48;41.20;25.00
29413;DHT22;16389;50.126;8.450;2024-03-25T14:56:14;40.90;25.00
29413;DHT22;16389;50.126;8.450;2024-03-25T14:58:39;41.00;25.80
29413;DHT22;16389;50.126;8.450;2024-03-25T15:01:05;41.10;25.20
29413;DHT22;16389;50.126;8.450;2024-03-25T15:03:31;40.20;26.00
29413;DHT22;16389;50.126;8.450;2024-03-25T15:05:56;40.30;25.30
29413;DHT22;16389;50.126;8.450;2024-03-25T15:08:22;40.50;25.20
29413;DHT22;16389;50.126;8.450;2024-03-25T15:10:48;41.00;25.30
29413;DHT22;16389;50.126;8.450;2024-03-25T15:13:14;41.10;25.30
29413;DHT22;16389;50.126;8.450;2024-03-25T15:15:40;41.40;25.30
29413;DHT22;16389;50.126;8.450;2024-03-25T15:18:07;41.80;24.80
29413;DHT22;16389;50.126;8.450;2024-03-25T15:20:33;41.50;24.60
29413;DHT22;16389;50.126;8.450;2024-03-25T15:22:59;41.60;25.00
29413;DHT22;16389;50.126;8.450;2024-03-25T15:25:25;41.60;24.30
29413;DHT22;16389;50.126;8.450;2024-03-25T15:27:52;41.30;24.90
29413;DHT22;16389;50.126;8.450;2024-03-25T15:30:18;41.10;24.50
29413;DHT22;16389;50.126;8.450;2024-03-25T15:32:44;40.80;24.30
29413;DHT22;16389;50.126;8.450;2024-03-25T15:35:09;40.60;24.80
29413;DHT22;16389;50.126;8.450;2024-03-25T15:37:35;40.20;24.20
29413;DHT22;16389;50.126;8.450;2024-03-25T15:40:00;40.00;24.20